Time;durP1;ratioP1;P1;durP2;ratioP2;P2;SDS_P1;SDS_P2;PMS_P1;PMS_P2;Temp;Humidity;BMP_temperature;BMP_pressure;BME280_temperature;BME280_humidity;BME280_pressure;Samples;Min_cycle;Max_cycle;Signal;HPM_P1;HPM_P2
2022/06/23 00:00:03;;;;;;;4.40;1.17;;;;;;;18.67;75.54;92618.19;2045259;70;20247;-73
2022/06/23 00:02:33;;;;;;;4.90;1.30;;;;;;;18.66;75.42;92617.47;2045421;70;20158;-74
2022/06/23 00:05:03;;;;;;;2.78;1.20;;;;;;;18.69;75.09;92607.63;2045577;70;20253;-75
2022/06/23 00:07:35;;;;;;;7.80;1.45;;;;;;;18.68;75.06;92605.38;2045498;70;20266;-72
2022/06/23 00:10:12;;;;;;;4.13;1.20;;;;;;;18.57;75.37;92612.22;2045384;70;20601;-73
2022/06/23 00:12:41;;;;;;;4.63;1.20;;;;;;;18.46;76.14;92611.16;2046402;70;20143;-75
2022/06/23 00:15:06;;;;;;;8.90;1.17;;;;;;;18.46;75.35;92614.00;2048748;70;20166;-72
2022/06/23 00:17:42;;;;;;;8.63;1.30;;;;;;;18.45;75.03;92616.13;2048790;70;20150;-73
2022/06/23 00:20:13;;;;;;;4.47;1.10;;;;;;;18.36;75.49;92617.28;2048750;70;20154;-72
2022/06/23 00:22:43;;;;;;;5.00;1.58;;;;;;;18.38;75.52;92608.09;2048771;70;20602;-72
2022/06/23 00:25:27;;;;;;;6.40;1.30;;;;;;;18.26;76.21;92612.00;2048399;70;20516;-73
2022/06/23 00:27:53;;;;;;;8.32;1.20;;;;;;;18.16;76.53;92616.66;2045136;70;20236;-73
2022/06/23 00:30:29;;;;;;;6.05;1.25;;;;;;;18.20;76.43;92625.34;2044952;70;20162;-71
2022/06/23 00:32:55;;;;;;;4.65;1.30;;;;;;;18.33;74.87;92632.88;2046928;70;20212;-72
2022/06/23 00:35:21;;;;;;;6.05;1.08;;;;;;;18.26;74.65;92623.41;2048749;70;20205;-72
2022/06/23 00:37:50;;;;;;;5.60;1.40;;;;;;;18.03;76.49;92630.50;2048732;70;20688;-73
2022/06/23 00:40:21;;;;;;;7.07;1.27;;;;;;;18.15;75.07;92623.75;2047977;70;20174;-72
2022/06/23 00:43:09;;;;;;;6.00;1.20;;;;;;;18.12;74.91;92642.16;2045292;70;20678;-72
2022/06/23 00:46:09;;;;;;;2.83;0.82;;;;;;;18.12;74.79;92642.88;2045446;70;20143;-73
2022/06/23 00:48:44;;;;;;;5.13;1.00;;;;;;;18.00;75.34;92640.38;2045411;70;20721;-72
2022/06/23 00:51:29;;;;;;;5.90;1.15;;;;;;;17.91;75.95;92643.63;2045276;70;20143;-73
2022/06/23 00:54:04;;;;;;;7.90;1.33;;;;;;;17.91;76.05;92641.50;2045546;70;20203;-72
2022/06/23 00:56:39;;;;;;;8.70;1.40;;;;;;;17.99;75.28;92641.75;2045114;70;20415;-73
2022/06/23 00:59:21;;;;;;;5.95;1.10;;;;;;;17.89;76.32;92646.41;2045350;70;20174;-73
2022/06/23 01:01:53;;;;;;;8.00;1.42;;;;;;;17.93;75.31;92644.44;2045199;70;20607;-73
2022/06/23 01:04:19;;;;;;;6.00;1.13;;;;;;;17.88;75.51;92653.50;2045526;70;20178;-73
2022/06/23 01:07:05;;;;;;;6.28;1.27;;;;;;;18.00;74.65;92651.75;2045038;70;20481;-72
2022/06/23 01:09:51;;;;;;;4.63;1.27;;;;;;;17.82;75.94;92651.16;2048027;70;20610;-73
2022/06/23 01:12:23;;;;;;;6.30;1.20;;;;;;;17.81;75.65;92649.72;2045281;70;20547;-73
2022/06/23 01:14:52;;;;;;;4.75;1.10;;;;;;;17.76;75.57;92648.84;2045092;70;20139;-73
2022/06/23 01:17:28;;;;;;;3.53;1.00;;;;;;;17.75;75.55;92646.66;2045360;70;20211;-72
2022/06/23 01:20:22;;;;;;;4.97;1.00;;;;;;;17.76;75.31;92650.97;2045304;70;20150;-72
2022/06/23 01:22:51;;;;;;;5.13;1.30;;;;;;;17.67;75.64;92655.63;2044976;70;20682;-72
2022/06/23 01:25:29;;;;;;;3.55;1.05;;;;;;;17.61;75.86;92666.09;2046012;70;20207;-72
2022/06/23 01:28:19;;;;;;;7.55;1.17;;;;;;;17.62;76.10;92667.53;2048202;70;20142;-72
2022/06/23 01:31:20;;;;;;;5.85;1.40;;;;;;;17.58;75.54;92673.09;2048389;70;20157;-72
2022/06/23 01:33:48;;;;;;;4.38;1.42;;;;;;;17.56;76.16;92678.72;2048626;70;20150;-71
2022/06/23 01:36:35;;;;;;;6.00;1.20;;;;;;;17.54;75.83;92671.56;2048606;70;20143;-73
2022/06/23 01:39:15;;;;;;;6.50;1.30;;;;;;;17.43;77.00;92675.44;2042145;70;20146;-73
2022/06/23 01:41:41;;;;;;;7.50;1.23;;;;;;;17.45;76.27;92681.19;2045458;70;20323;-72
2022/06/23 01:44:21;;;;;;;5.60;1.08;;;;;;;17.41;76.51;92678.25;2045201;70;20154;-73
2022/06/23 01:46:53;;;;;;;7.22;1.58;;;;;;;17.36;76.76;92679.47;2045382;70;20600;-74
2022/06/23 01:49:27;;;;;;;5.60;1.13;;;;;;;17.27;76.97;92678.47;2045242;70;20230;-73
2022/06/23 01:52:16;;;;;;;10.52;1.42;;;;;;;17.28;77.00;92676.34;2045300;70;20610;-73
2022/06/23 01:54:52;;;;;;;7.28;1.10;;;;;;;17.37;76.03;92689.47;2046669;70;20228;-74
2022/06/23 01:57:29;;;;;;;3.03;1.10;;;;;;;17.04;77.40;92690.41;2047379;70;20139;-74
2022/06/23 02:00:14;;;;;;;5.28;1.35;;;;;;;17.35;75.53;92697.19;2045195;70;20197;-74
2022/06/23 02:03:02;;;;;;;3.58;1.25;;;;;;;17.20;76.42;92704.50;2045196;70;20182;-74
2022/06/23 02:05:49;;;;;;;6.07;1.48;;;;;;;17.22;75.98;92710.97;2045062;70;20147;-74
2022/06/23 02:08:35;;;;;;;3.25;1.40;;;;;;;17.19;76.76;92714.41;2044753;70;20571;-73
2022/06/23 02:11:42;;;;;;;7.70;1.25;;;;;;;17.25;75.73;92717.47;2044858;70;20527;-74
2022/06/23 02:14:28;;;;;;;4.05;1.13;;;;;;;17.15;76.52;92715.00;2027508;70;20484;-72
2022/06/23 02:17:08;;;;;;;2.67;1.20;;;;;;;17.21;75.52;92723.75;2024896;70;20176;-73
2022/06/23 02:19:45;;;;;;;5.28;1.02;;;;;;;17.22;75.53;92727.31;2027616;70;20153;-72
2022/06/23 02:22:23;;;;;;;4.72;0.80;;;;;;;17.11;76.27;92728.34;2027387;70;20160;-73
2022/06/23 02:24:55;;;;;;;10.05;1.08;;;;;;;17.00;76.42;92718.72;2029129;70;20165;-73
2022/06/23 02:27:20;;;;;;;4.25;1.08;;;;;;;17.12;74.98;92727.69;2030983;70;20125;-72
2022/06/23 02:30:24;;;;;;;5.63;1.00;;;;;;;17.08;76.29;92721.84;2030739;70;20156;-72
2022/06/23 02:33:02;;;;;;;4.65;1.63;;;;;;;17.01;76.70;92725.84;2030976;70;20195;-72
2022/06/23 02:35:34;;;;;;;6.20;1.27;;;;;;;17.11;76.06;92734.75;2031727;70;20231;-72
2022/06/23 02:38:19;;;;;;;8.43;1.20;;;;;;;17.09;76.85;92734.69;2031539;70;20614;-72
2022/06/23 02:40:48;;;;;;;5.82;1.20;;;;;;;17.06;76.50;92733.16;2031127;70;20164;-73
2022/06/23 02:43:32;;;;;;;4.55;0.98;;;;;;;16.93;76.67;92734.78;2030705;70;20362;-73
2022/06/23 02:46:36;;;;;;;9.82;1.10;;;;;;;17.05;75.91;92740.22;2047911;70;20607;-72
2022/06/23 02:49:08;;;;;;;5.18;1.25;;;;;;;16.97;76.50;92737.06;2048647;70;20209;-72
2022/06/23 02:51:42;;;;;;;3.40;1.10;;;;;;;16.92;76.73;92732.63;2048992;70;20196;-73
2022/06/23 02:54:20;;;;;;;2.22;1.10;;;;;;;16.83;77.23;92742.22;2048498;70;20155;-73
2022/06/23 02:57:04;;;;;;;3.25;1.38;;;;;;;16.90;76.83;92753.16;2048729;70;20253;-74
2022/06/23 03:00:02;;;;;;;5.80;1.08;;;;;;;16.77;76.98;92746.28;2045496;70;20635;-75
2022/06/23 03:02:28;;;;;;;3.70;1.30;;;;;;;16.83;76.84;92750.75;2045321;70;20151;-74
2022/06/23 03:04:59;;;;;;;3.03;1.13;;;;;;;16.92;75.37;92753.25;2045557;70;20171;-74
2022/06/23 03:07:41;;;;;;;10.05;1.35;;;;;;;16.84;76.71;92746.53;2042255;70;20217;-75
2022/06/23 03:10:24;;;;;;;4.25;0.90;;;;;;;16.90;76.40;92764.53;2043716;70;20191;-74
2022/06/23 03:12:57;;;;;;;;;;;;;;;16.96;75.69;92756.25;2045791;70;20154;-74
2022/06/23 03:15:31;;;;;;;1.20;0.80;;;;;;;16.92;77.28;92753.25;2045756;70;20050;-75
2022/06/23 03:18:03;;;;;;;4.05;1.30;;;;;;;16.96;76.78;92764.78;2045757;70;20150;-73
2022/06/23 03:20:28;;;;;;;4.68;1.23;;;;;;;16.96;77.07;92758.38;2045817;70;20143;-73
2022/06/23 03:22:57;;;;;;;4.13;1.02;;;;;;;16.89;78.06;92757.38;2045659;70;20512;-75
2022/06/23 03:25:36;;;;;;;4.55;1.00;;;;;;;16.92;77.67;92764.63;2048335;70;20147;-75
2022/06/23 03:28:13;;;;;;;6.32;1.33;;;;;;;17.01;76.48;92760.69;2045690;70;20141;-73
2022/06/23 03:30:50;;;;;;;3.22;0.90;;;;;;;16.95;77.42;92769.00;2048881;70;20162;-75
2022/06/23 03:33:22;;;;;;;7.13;1.20;;;;;;;16.93;77.98;92763.22;2048783;70;20159;-74
2022/06/23 03:35:54;;;;;;;3.67;1.17;;;;;;;17.05;76.62;92767.94;2045693;70;20142;-74
2022/06/23 03:41:36;;;;;;;4.85;1.08;;;;;;;16.89;78.04;92771.59;2048194;70;20261;-74
2022/06/23 03:44:06;;;;;;;4.18;1.10;;;;;;;16.46;79.54;92781.28;2045561;70;20497;-74
2022/06/23 03:46:40;;;;;;;3.17;1.10;;;;;;;16.75;77.68;92783.16;2045660;70;20150;-74
2022/06/23 03:49:30;;;;;;;4.78;1.60;;;;;;;16.40;79.25;92786.72;2045898;70;20580;-75
2022/06/23 03:52:00;;;;;;;5.30;1.60;;;;;;;16.67;77.20;92787.75;2045741;70;20685;-74
2022/06/23 03:54:31;;;;;;;6.05;1.70;;;;;;;16.77;76.24;92779.69;2047050;70;20151;-74
2022/06/23 03:57:04;;;;;;;6.93;1.60;;;;;;;16.70;76.12;92775.09;2048987;70;20249;-76
2022/06/23 03:59:49;;;;;;;8.45;1.52;;;;;;;16.67;77.06;92773.53;2042840;70;20166;-76
2022/06/23 04:02:23;;;;;;;4.50;1.42;;;;;;;16.71;76.58;92777.28;2047211;70;20146;-75
2022/06/23 04:05:00;;;;;;;2.75;1.30;;;;;;;16.64;77.19;92777.72;2045750;70;20155;-76
2022/06/23 04:07:28;;;;;;;3.30;1.10;;;;;;;16.55;77.95;92785.19;2045652;70;20513;-76
2022/06/23 04:10:05;;;;;;;3.10;1.55;;;;;;;16.28;78.60;92780.53;2047913;70;20231;-75
2022/06/23 04:12:32;;;;;;;5.88;1.40;;;;;;;16.44;78.46;92786.13;2061642;69;20196;-76
2022/06/23 04:15:05;;;;;;;4.78;1.30;;;;;;;16.53;77.74;92785.81;2048682;70;20501;-75
2022/06/23 04:17:34;;;;;;;3.72;1.90;;;;;;;16.57;77.31;92779.56;2048915;70;20610;-74
2022/06/23 04:20:10;;;;;;;4.93;1.50;;;;;;;16.58;76.99;92780.28;2048796;70;20190;-74
2022/06/23 04:22:44;;;;;;;2.38;1.10;;;;;;;16.41;77.93;92776.81;2048753;70;20147;-74
2022/06/23 04:25:19;;;;;;;6.43;1.60;;;;;;;16.56;77.22;92786.63;2044924;70;20262;-74
2022/06/23 04:27:50;;;;;;;5.82;1.15;;;;;;;16.53;77.75;92788.66;2045535;70;20143;-74
2022/06/23 04:30:25;;;;;;;5.47;1.40;;;;;;;16.47;77.84;92791.25;2045413;70;20143;-74
2022/06/23 04:32:52;;;;;;;4.57;1.30;;;;;;;16.45;77.87;92796.88;2045352;70;20165;-74
2022/06/23 04:35:32;;;;;;;4.65;1.40;;;;;;;16.55;76.87;92805.06;2045716;70;20143;-74
2022/06/23 04:38:18;;;;;;;5.45;1.45;;;;;;;16.40;76.20;92814.38;2045987;69;20145;-74
2022/06/23 04:40:49;;;;;;;6.80;1.67;;;;;;;16.41;76.93;92816.59;2048722;70;20154;-75
2022/06/23 04:43:27;;;;;;;3.47;1.50;;;;;;;16.43;77.24;92819.50;2048618;70;20158;-74
2022/06/23 04:45:59;;;;;;;1.88;1.27;;;;;;;16.45;76.93;92818.88;2048667;70;20178;-74
2022/06/23 04:48:41;;;;;;;5.47;1.90;;;;;;;16.43;76.86;92813.09;2048779;70;20127;-75
2022/06/23 04:51:26;;;;;;;4.83;1.20;;;;;;;16.43;77.73;92816.66;2048736;70;20199;-73
2022/06/23 04:54:00;;;;;;;7.10;1.90;;;;;;;16.51;77.08;92817.00;2048367;70;20157;-74
2022/06/23 04:56:30;;;;;;;8.25;1.35;;;;;;;16.63;75.49;92813.16;2048556;70;20146;-74
2022/06/23 04:59:14;;;;;;;5.43;1.50;;;;;;;16.20;79.32;92823.53;2048480;70;20158;-74
2022/06/23 05:01:45;;;;;;;5.38;1.50;;;;;;;16.29;79.43;92826.72;2048486;70;20170;-74
2022/06/23 05:04:26;;;;;;;5.22;1.40;;;;;;;16.33;78.96;92813.41;2044128;70;20589;-75
2022/06/23 05:06:56;;;;;;;5.28;1.63;;;;;;;16.48;77.20;92817.56;2045533;70;20241;-74
2022/06/23 05:09:33;;;;;;;5.43;2.47;;;;;;;16.50;77.75;92823.34;2045481;70;20155;-74
2022/06/23 05:12:03;;;;;;;5.00;1.70;;;;;;;16.52;77.97;92817.72;2045415;70;20149;-75
2022/06/23 05:14:51;;;;;;;4.97;1.50;;;;;;;16.49;78.30;92821.84;2045377;70;20230;-76
2022/06/23 05:17:21;;;;;;;2.97;1.33;;;;;;;16.63;77.15;92821.69;2045669;70;20151;-74
2022/06/23 05:19:51;;;;;;;6.22;1.25;;;;;;;16.52;78.37;92817.72;2045323;69;20193;-74
2022/06/23 05:22:30;;;;;;;3.00;1.27;;;;;;;16.58;77.60;92815.13;2045448;70;20216;-75
2022/06/23 05:25:00;;;;;;;6.07;1.38;;;;;;;16.53;77.70;92817.06;2042168;70;20605;-77
2022/06/23 05:27:31;;;;;;;5.95;1.65;;;;;;;16.70;75.40;92814.88;2045485;70;20151;-75
2022/06/23 05:30:28;;;;;;;7.88;2.35;;;;;;;16.71;75.83;92817.06;2045228;70;20154;-74
2022/06/23 05:32:58;;;;;;;9.38;2.45;;;;;;;16.55;77.54;92805.06;2044451;70;20638;-75
2022/06/23 05:35:31;;;;;;;6.93;2.17;;;;;;;16.66;77.00;92809.78;2045393;70;20524;-76
2022/06/23 05:38:00;;;;;;;4.95;2.00;;;;;;;16.65;77.56;92808.31;2045584;70;20139;-75
2022/06/23 05:40:43;;;;;;;5.03;1.95;;;;;;;16.68;76.94;92821.22;2045600;70;20608;-75
2022/06/23 05:43:11;;;;;;;7.23;2.10;;;;;;;16.65;77.36;92819.69;2045587;70;20145;-75
2022/06/23 05:45:58;;;;;;;8.02;1.60;;;;;;;16.63;77.99;92821.69;2045463;70;20151;-75
2022/06/23 05:48:29;;;;;;;3.72;1.58;;;;;;;16.70;76.98;92821.31;2042396;70;20207;-75
2022/06/23 05:51:21;;;;;;;6.45;1.75;;;;;;;16.70;76.77;92821.31;2048398;70;20234;-75
2022/06/23 05:54:06;;;;;;;9.20;1.55;;;;;;;16.68;78.38;92817.66;2048949;70;20219;-76
2022/06/23 05:56:41;;;;;;;3.95;1.52;;;;;;;16.72;77.75;92812.91;2048817;70;20131;-74
2022/06/23 05:59:26;;;;;;;7.80;1.75;;;;;;;16.73;77.98;92820.03;2045980;69;20170;-75
2022/06/23 06:01:58;;;;;;;5.50;1.50;;;;;;;16.83;77.00;92818.97;2047883;70;20169;-77
2022/06/23 06:04:49;;;;;;;5.15;1.58;;;;;;;16.83;77.78;92822.56;2047938;70;20158;-75
2022/06/23 06:07:17;;;;;;;6.80;1.75;;;;;;;16.85;77.39;92822.63;2047492;70;20200;-77
2022/06/23 06:09:43;;;;;;;7.50;1.80;;;;;;;16.86;78.09;92826.94;2047784;69;20258;-76
2022/06/23 06:12:19;;;;;;;7.88;2.10;;;;;;;16.85;77.75;92814.09;2045387;70;20209;-74
2022/06/23 06:14:50;;;;;;;7.05;1.77;;;;;;;17.03;76.23;92823.34;2045382;70;20143;-76
2022/06/23 06:17:20;;;;;;;4.93;1.63;;;;;;;17.05;77.37;92819.84;2045655;70;20143;-76
2022/06/23 06:19:47;;;;;;;5.45;1.40;;;;;;;17.13;76.94;92825.84;2045498;70;20159;-75
2022/06/23 06:22:50;;;;;;;6.25;1.50;;;;;;;17.22;77.32;92816.22;2046154;70;20225;-73
2022/06/23 06:25:21;;;;;;;5.40;1.75;;;;;;;17.26;77.31;92815.66;2048347;70;20612;-76
2022/06/23 06:27:47;;;;;;;2.80;1.30;;;;;;;17.41;76.72;92820.53;2048311;69;20186;-76
2022/06/23 06:30:21;;;;;;;3.75;1.40;;;;;;;17.47;78.94;92822.84;2048181;70;20151;-77
2022/06/23 06:32:47;;;;;;;2.13;1.10;;;;;;;17.63;76.25;92814.91;2047880;69;20154;-74
2022/06/23 06:35:25;;;;;;;5.03;1.35;;;;;;;17.74;76.86;92816.78;2048422;70;20150;-74
2022/06/23 06:38:02;;;;;;;2.78;1.40;;;;;;;17.72;77.97;92810.97;2043935;70;20242;-73
2022/06/23 06:40:29;;;;;;;3.13;1.30;;;;;;;17.82;76.73;92815.59;2047920;70;20158;-73
2022/06/23 06:43:00;;;;;;;5.00;1.40;;;;;;;17.95;76.41;92811.78;2047088;70;20151;-74
2022/06/23 06:45:32;;;;;;;2.67;1.35;;;;;;;18.02;76.42;92811.34;2048131;70;20577;-72
2022/06/23 06:47:59;;;;;;;4.43;1.35;;;;;;;18.09;75.06;92805.84;2048255;70;20138;-75
2022/06/23 06:50:28;;;;;;;4.82;1.23;;;;;;;18.21;70.70;92803.44;2046846;70;20596;-73
2022/06/23 06:52:57;;;;;;;7.13;1.90;;;;;;;18.27;73.64;92801.50;2048138;70;20670;-73
2022/06/23 06:55:35;;;;;;;6.80;1.50;;;;;;;18.35;71.84;92792.50;2046646;70;20242;-75
2022/06/23 06:58:24;;;;;;;3.03;1.52;;;;;;;18.44;71.94;92791.38;2048116;70;20205;-77
2022/06/23 07:01:04;;;;;;;2.50;1.23;;;;;;;18.51;72.57;92790.22;2048121;70;20269;-76
2022/06/23 07:03:34;;;;;;;4.07;1.58;;;;;;;18.50;75.74;92790.84;2047655;70;20218;-75
2022/06/23 07:06:12;;;;;;;2.78;1.48;;;;;;;18.59;70.33;92792.59;2045681;69;20487;-76
2022/06/23 07:09:02;;;;;;;2.13;1.30;;;;;;;18.66;72.53;92784.97;2049213;70;20153;-75
2022/06/23 07:12:00;;;;;;;5.03;1.30;;;;;;;18.76;71.72;92783.19;2047772;70;20169;-76
2022/06/23 07:15:07;;;;;;;7.20;1.40;;;;;;;18.82;73.79;92779.06;2048457;70;20157;-73
2022/06/23 07:18:06;;;;;;;5.15;1.38;;;;;;;18.79;73.66;92784.72;2037597;70;20166;-74
2022/06/23 07:20:42;;;;;;;4.40;1.17;;;;;;;18.92;74.42;92773.66;2042747;70;20163;-76
2022/06/23 07:23:14;;;;;;;4.47;1.35;;;;;;;19.04;75.05;92780.50;2047035;70;20154;-77
2022/06/23 07:25:49;;;;;;;11.45;1.50;;;;;;;19.12;75.36;92773.59;2062903;69;20271;-77
2022/06/23 07:28:33;;;;;;;7.55;1.27;;;;;;;19.19;75.63;92770.22;2057773;69;20520;-75
2022/06/23 07:31:06;;;;;;;3.05;1.33;;;;;;;19.26;75.46;92768.31;2045763;70;20536;-75
2022/06/23 07:33:48;;;;;;;6.75;1.60;;;;;;;19.37;75.03;92757.91;2048276;70;20496;-72
2022/06/23 07:36:25;;;;;;;3.58;1.20;;;;;;;19.44;74.38;92765.25;2048967;70;20188;-72
2022/06/23 07:39:06;;;;;;;4.05;1.27;;;;;;;19.48;75.29;92754.69;2045892;70;20178;-72
2022/06/23 07:41:54;;;;;;;2.83;1.23;;;;;;;19.54;73.93;92754.84;2047960;70;20767;-72
2022/06/23 07:44:40;;;;;;;5.32;1.15;;;;;;;19.64;75.32;92745.13;2045535;70;20264;-71
2022/06/23 07:47:06;;;;;;;4.30;1.50;;;;;;;19.72;75.47;92746.09;2045926;70;20166;-73
2022/06/23 07:49:33;;;;;;;5.65;1.20;;;;;;;19.77;76.06;92741.22;2046349;69;20163;-74
2022/06/23 07:52:01;;;;;;;6.50;1.30;;;;;;;19.81;75.47;92738.47;2046223;70;20613;-76
2022/06/23 07:54:28;;;;;;;6.65;1.45;;;;;;;19.90;74.63;92733.72;2045910;70;20139;-76
2022/06/23 07:56:54;;;;;;;5.43;1.40;;;;;;;19.94;75.18;92745.97;2049006;70;20138;-76
2022/06/23 07:59:27;;;;;;;4.35;1.30;;;;;;;20.08;75.92;92744.91;2045035;70;20173;-73
2022/06/23 08:02:00;;;;;;;5.22;1.27;;;;;;;20.15;74.95;92744.38;2047643;70;20158;-72
2022/06/23 08:04:38;;;;;;;6.32;1.23;;;;;;;20.20;73.61;92743.06;2048717;70;20238;-72
2022/06/23 08:07:08;;;;;;;6.65;1.50;;;;;;;20.38;74.32;92739.22;2048706;70;20149;-72
2022/06/23 08:09:44;;;;;;;2.55;1.40;;;;;;;20.43;73.72;92735.78;2048608;70;20178;-72
2022/06/23 08:18:26;;;;;;;6.70;1.55;;;;;;;20.98;69.95;92717.09;2049171;70;20143;-76
2022/06/23 08:21:02;;;;;;;5.50;1.30;;;;;;;21.04;68.07;92713.66;2045028;70;20523;-75
2022/06/23 08:23:34;;;;;;;4.35;1.30;;;;;;;21.41;68.95;92706.59;2048577;70;20155;-76
2022/06/23 08:26:00;;;;;;;4.18;1.40;;;;;;;21.65;71.57;92697.03;2048701;70;20607;-76
2022/06/23 08:28:27;;;;;;;3.15;1.17;;;;;;;22.05;68.55;92702.81;2048495;70;20220;-75
2022/06/23 08:30:53;;;;;;;3.20;1.20;;;;;;;22.79;66.10;92699.03;2042504;70;20161;-73
2022/06/23 08:33:18;;;;;;;5.32;1.38;;;;;;;22.73;63.96;92693.22;2042415;70;20147;-72
2022/06/23 08:35:47;;;;;;;4.15;1.30;;;;;;;23.04;62.62;92682.91;2047131;70;20146;-73
2022/06/23 08:38:34;;;;;;;3.13;1.25;;;;;;;23.46;60.89;92677.03;2048995;70;20139;-73
2022/06/23 08:41:37;;;;;;;3.45;1.38;;;;;;;23.82;60.76;92678.91;2048856;70;20162;-73
2022/06/23 08:44:21;;;;;;;3.33;1.10;;;;;;;24.36;59.00;92672.25;2049842;69;20608;-75
2022/06/23 08:46:59;;;;;;;2.22;1.10;;;;;;;24.78;60.31;92666.13;2048988;70;20151;-77
2022/06/23 08:49:47;;;;;;;3.95;1.50;;;;;;;25.13;57.43;92668.56;2048450;70;20151;-75
2022/06/23 08:52:56;;;;;;;4.03;1.30;;;;;;;25.48;54.51;92655.06;2046753;70;20161;-76
2022/06/23 08:56:03;;;;;;;4.40;1.10;;;;;;;25.63;53.43;92650.09;2050552;70;20138;-78
2022/06/23 08:58:50;;;;;;;2.58;1.10;;;;;;;26.00;54.16;92645.91;2039070;70;20620;-73
2022/06/23 09:01:25;;;;;;;6.57;0.85;;;;;;;25.74;51.93;92640.75;2045485;70;20178;-74
2022/06/23 09:04:05;;;;;;;3.78;1.20;;;;;;;26.02;49.53;92643.00;2045774;70;20154;-71
2022/06/23 09:06:34;;;;;;;3.60;0.93;;;;;;;26.67;51.20;92635.91;2045458;70;20181;-74
2022/06/23 09:09:28;;;;;;;2.10;0.88;;;;;;;26.93;49.15;92630.06;2045606;70;20581;-74
2022/06/23 09:12:03;;;;;;;2.10;1.00;;;;;;;27.10;50.04;92625.75;2045413;69;20233;-76
2022/06/23 09:15:00;;;;;;;2.53;0.90;;;;;;;27.28;46.21;92627.16;2045313;70;20155;-74
2022/06/23 09:18:05;;;;;;;4.28;1.00;;;;;;;27.43;45.59;92622.03;2045597;70;20221;-74
2022/06/23 09:20:55;;;;;;;7.07;0.98;;;;;;;26.69;43.28;92625.06;2047742;70;20257;-76
2022/06/23 09:23:55;;;;;;;4.40;1.20;;;;;;;26.93;42.61;92617.81;2048886;70;20259;-78
2022/06/23 09:26:42;;;;;;;1.38;0.80;;;;;;;27.61;42.92;92608.22;2045638;70;20638;-77
2022/06/23 09:29:16;;;;;;;2.40;0.90;;;;;;;27.88;41.81;92605.25;2048341;70;20226;-73
2022/06/23 09:32:06;;;;;;;4.82;1.27;;;;;;;27.40;42.18;92595.31;2048923;70;20173;-74
2022/06/23 09:34:43;;;;;;;3.97;1.17;;;;;;;28.31;42.54;92602.78;2048754;70;20147;-74
2022/06/23 09:37:24;;;;;;;1.92;0.80;;;;;;;28.20;42.28;92601.41;2048847;70;20162;-77
2022/06/23 09:40:13;;;;;;;5.32;0.95;;;;;;;28.68;41.29;92590.94;2048999;70;20322;-76
2022/06/23 09:43:04;;;;;;;3.58;0.75;;;;;;;28.61;42.75;92587.38;2045837;70;20173;-78
2022/06/23 09:45:54;;;;;;;3.33;0.82;;;;;;;28.14;41.58;92586.28;2045378;70;20627;-77
2022/06/23 09:48:35;;;;;;;2.92;0.88;;;;;;;28.57;40.67;92581.63;2042446;70;20149;-73
2022/06/23 09:51:22;;;;;;;2.88;1.00;;;;;;;28.15;40.79;92590.63;2043707;70;20257;-73
2022/06/23 09:53:50;;;;;;;2.47;0.80;;;;;;;29.23;41.25;92589.69;2045484;70;20151;-73
2022/06/23 09:56:16;;;;;;;1.77;0.77;;;;;;;28.98;38.16;92580.56;2045842;70;20146;-73
2022/06/23 09:58:44;;;;;;;3.40;0.80;;;;;;;28.76;36.80;92587.25;2048639;69;20130;-73
2022/06/23 10:01:32;;;;;;;2.72;1.00;;;;;;;29.45;37.09;92580.75;2048798;70;20151;-78
2022/06/23 10:04:45;;;;;;;1.45;0.80;;;;;;;29.46;37.54;92578.56;2048941;70;20174;-73
2022/06/23 10:07:35;;;;;;;2.97;0.70;;;;;;;30.25;38.08;92577.56;2047666;70;20170;-73
2022/06/23 10:10:33;;;;;;;3.10;0.80;;;;;;;30.04;35.87;92574.19;2045386;70;20707;-74
2022/06/23 10:13:43;;;;;;;7.00;0.90;;;;;;;29.82;35.24;92560.72;2042404;70;20139;-73
2022/06/23 10:16:27;;;;;;;2.17;0.90;;;;;;;30.29;36.06;92556.47;2034856;70;20556;-73
2022/06/23 10:19:07;;;;;;;2.72;1.10;;;;;;;30.97;35.29;92548.06;2035226;70;20683;-77
2022/06/23 10:21:37;;;;;;;3.83;0.93;;;;;;;30.57;36.37;92543.66;2037623;70;20659;-79
2022/06/23 10:24:34;;;;;;;5.60;0.95;;;;;;;30.45;34.46;92547.47;2038256;70;20190;-77
2022/06/23 10:27:18;;;;;;;4.45;0.98;;;;;;;31.21;34.92;92538.19;2038181;70;20252;-77
2022/06/23 10:30:03;;;;;;;3.30;0.70;;;;;;;30.56;34.09;92528.44;2037968;70;20238;-78
2022/06/23 10:33:00;;;;;;;7.30;0.95;;;;;;;31.93;31.00;92530.91;2038118;70;20144;-78
2022/06/23 10:35:28;;;;;;;6.00;1.00;;;;;;;31.42;32.55;92526.16;2038071;70;20178;-73
2022/06/23 10:38:03;;;;;;;5.07;1.00;;;;;;;30.94;33.92;92528.53;2037547;70;20147;-79
2022/06/23 10:41:11;;;;;;;3.72;0.90;;;;;;;31.67;33.03;92529.28;2038138;70;20156;-77
2022/06/23 10:44:14;;;;;;;4.68;0.93;;;;;;;33.68;30.41;92529.44;2037629;69;20163;-74
2022/06/23 10:47:07;;;;;;;3.63;0.88;;;;;;;32.33;30.76;92514.72;2042435;70;20631;-73
2022/06/23 10:49:48;;;;;;;3.72;1.00;;;;;;;34.27;29.72;92518.94;2046280;69;20158;-74
2022/06/23 10:52:42;;;;;;;3.90;0.80;;;;;;;33.34;30.75;92522.34;2045843;70;20147;-74
2022/06/23 10:55:26;;;;;;;4.57;1.20;;;;;;;34.54;28.28;92512.94;2046060;70;20497;-73
2022/06/23 10:58:10;;;;;;;5.45;0.90;;;;;;;35.81;27.85;92499.78;2045917;70;20157;-75
2022/06/23 11:00:41;;;;;;;4.07;0.98;;;;;;;36.32;26.99;92497.84;2045796;70;20257;-77
2022/06/23 11:03:30;;;;;;;5.13;1.05;;;;;;;38.62;23.69;92502.44;2045693;70;20162;-74
2022/06/23 11:06:29;;;;;;;2.33;0.70;;;;;;;41.79;21.25;92509.59;2042739;70;20149;-79
2022/06/23 11:09:11;;;;;;;2.70;0.80;;;;;;;43.13;19.62;92505.59;2046308;70;20163;-76
2022/06/23 11:12:01;;;;;;;3.80;0.75;;;;;;;44.39;19.06;92505.81;2045784;70;20543;-76
2022/06/23 11:14:59;;;;;;;5.80;1.17;;;;;;;45.50;19.39;92492.53;2045728;70;20203;-76
2022/06/23 11:17:34;;;;;;;5.13;0.90;;;;;;;46.01;17.39;92493.84;2045821;70;20151;-77
2022/06/23 11:20:02;;;;;;;2.55;0.77;;;;;;;47.44;17.19;92485.34;2046109;69;20228;-76
2022/06/23 11:22:56;;;;;;;2.38;0.98;;;;;;;46.28;15.66;92472.38;2046527;70;20142;-79
2022/06/23 11:25:30;;;;;;;4.35;0.90;;;;;;;43.68;18.40;92462.66;2049030;70;20169;-74
2022/06/23 11:28:18;;;;;;;3.22;1.00;;;;;;;47.10;15.50;92465.75;2049132;70;20162;-75
2022/06/23 11:31:10;;;;;;;3.63;1.00;;;;;;;49.24;15.79;92470.38;2049023;70;20142;-77
2022/06/23 11:34:00;;;;;;;3.65;0.95;;;;;;;50.08;14.18;92461.03;2045884;70;20174;-77
2022/06/23 11:36:41;;;;;;;6.70;0.80;;;;;;;49.08;14.35;92452.34;2049002;70;20588;-74
2022/06/23 11:39:26;;;;;;;3.67;0.90;;;;;;;49.68;13.29;92447.59;2048642;70;20677;-76
2022/06/23 11:41:51;;;;;;;4.15;0.90;;;;;;;48.69;13.62;92445.44;2048151;70;20524;-75
2022/06/23 11:44:42;;;;;;;4.68;0.77;;;;;;;49.48;12.75;92441.22;2048798;70;20145;-74
2022/06/23 11:47:34;;;;;;;5.20;0.80;;;;;;;51.32;13.54;92427.25;2048906;70;20600;-76
2022/06/23 11:49:59;;;;;;;2.78;0.80;;;;;;;50.51;13.71;92426.31;2046758;70;20146;-74
2022/06/23 11:52:56;;;;;;;3.13;0.63;;;;;;;51.34;12.83;92424.06;2045558;70;20596;-75
2022/06/23 11:55:39;;;;;;;2.08;0.70;;;;;;;49.71;12.83;92412.91;2045529;70;20171;-75
2022/06/23 11:58:28;;;;;;;3.90;0.82;;;;;;;51.46;13.13;92416.13;2045255;70;20239;-76
2022/06/23 12:01:16;;;;;;;9.70;1.05;;;;;;;49.29;13.58;92399.66;2042658;70;20251;-76
2022/06/23 12:04:05;;;;;;;2.80;0.85;;;;;;;46.17;15.49;92378.84;2045531;70;20151;-75
2022/06/23 12:06:56;;;;;;;4.65;0.93;;;;;;;45.29;17.89;92373.78;2045545;70;20552;-76
2022/06/23 12:10:12;;;;;;;2.35;0.70;;;;;;;42.13;18.71;92358.91;2045408;70;20154;-76
2022/06/23 12:12:40;;;;;;;8.02;1.10;;;;;;;40.80;19.56;92357.50;2034401;70;20156;-76
2022/06/23 12:15:07;;;;;;;6.45;1.20;;;;;;;39.23;21.79;92348.63;2034178;70;20781;-74
2022/06/23 12:17:38;;;;;;;6.05;1.13;;;;;;;38.63;22.81;92341.44;2034031;70;20621;-75
2022/06/23 12:20:24;;;;;;;7.90;0.98;;;;;;;37.78;23.88;92328.72;2034554;70;20156;-75
2022/06/23 12:23:12;;;;;;;3.30;0.88;;;;;;;37.54;23.90;92315.91;2034281;70;20163;-73
2022/06/23 12:26:05;;;;;;;2.38;0.90;;;;;;;37.54;24.31;92318.84;2034292;70;20213;-73
2022/06/23 12:28:31;;;;;;;2.88;1.00;;;;;;;37.27;24.28;92319.34;2034869;70;20166;-74
2022/06/23 12:31:13;;;;;;;4.25;1.08;;;;;;;35.97;26.14;92302.25;2034401;70;20132;-73
2022/06/23 12:33:55;;;;;;;3.47;1.00;;;;;;;36.59;24.35;92301.81;2034701;70;20224;-73
2022/06/23 12:37:07;;;;;;;3.63;0.82;;;;;;;37.10;24.39;92304.72;2034539;70;20164;-73
2022/06/23 12:39:41;;;;;;;4.60;1.00;;;;;;;36.47;23.95;92301.63;2030115;70;20142;-73